Voyageurs National Park, MN

3:47 AM CST on November 23, 2014 (GMT -0600)
Wayside Lane | Change Station
CLOSE
Current Station
Personal Weather Station
Location: International Falls, MN
Elevation: 1115 ft
Nearby Weather Stations

Elev 1115 ft 48.60 °N, 93.42 °W | Updated 2 minutes ago

Overcast
Overcast
32.5 °F
Feels Like 32 °F
N
0.0
Wind Variable Wind from SSW
Gusts 1.0 mph

Today
High -- | Low -- °F
--% Chance of Precip.
Yesterday
High -- | Low -- °F
Precip. -- in
7:33 AM 4:25 PM
New Moon, 1% visible
Pressure 29.41 in
Visibility 2.5 miles
Clouds Overcast 600 ft
Windchill 32 °F
Dew Point 31 °F
Humidity 95%
Rainfall 0.00 in
Snow Depth Not available.
UV 0 out of 12
Pollen .10 out of 12
Air Quality Not available.
Flu Activity Not available.
SPECI KINL 230932Z AUTO 15003KT 2 1/2SM BR OVC006 01/M01 A2941 RMK AO2 T00061006 $

More Conditions Fewer Conditions

Pressure 29.41 in
Visibility 2.5 miles
Clouds Overcast 600 ft
Windchill 32 °F
Dew Point 31 °F
Humidity 95%
Rainfall 0.00 in
Snow Depth Not available.
UV 0 out of 12
Pollen .10 out of 12
Air Quality Not available.
Flu Activity Not available.
SPECI KINL 230932Z AUTO 15003KT 2 1/2SM BR OVC006 01/M01 A2941 RMK AO2 T00061006 $

More Conditions Fewer Conditions

10-Day Weather Forecast

Almanac

Astronomy

Nov. 23, 2014 Rise Set
Actual Time
Civil Twilight
Nautical Twilight
Astronomical Twilight
Moon
Length of Visible Light
Length of Day
Tomorrow will be .
, % of the Moon is Illuminated

Today's Extremes

State Highs State Lows

Community

WunderPhotos

Upload Photos

1,773,032 photos uploaded!

WunderBlogs® & News

Nearby

Air Quality

  Air Quality AQ Index Pollutant
Not available.

Snow Depth

Station Depth Elevation

Earthquake Activity

City Distance Mag. Time & Date
Minimum magnitude displayed is 2.5.

Coastal Water Temperatures

Place Temperature

Nearby Weather Stations